createdAt,value
2017-05-31T00:00:48.640Z,59.66
2017-05-31T00:01:48.639Z,59.66
2017-05-31T00:02:48.637Z,59.72
2017-05-31T00:03:48.639Z,59.72
2017-05-31T00:04:48.635Z,59.66
2017-05-31T00:05:48.633Z,59.24
2017-05-31T00:06:48.633Z,59.75
2017-05-31T00:07:48.330Z,59.17
2017-05-31T00:08:48.329Z,59.82
2017-05-31T00:09:48.628Z,59.15
2017-05-31T00:10:48.627Z,59.44
2017-05-31T00:11:48.626Z,59.05
2017-05-31T00:12:48.623Z,59.15
2017-05-31T00:13:48.620Z,59.63
2017-05-31T00:14:48.620Z,59.24
2017-05-31T00:15:48.619Z,59.82
2017-05-31T00:16:48.615Z,59.34
2017-05-31T00:17:48.614Z,59.15
2017-05-31T00:18:48.611Z,59.15
2017-05-31T00:19:48.309Z,58.95
2017-05-31T00:20:48.609Z,59.24
2017-05-31T00:21:48.612Z,59.05
2017-05-31T00:22:48.668Z,59.05
2017-05-31T00:23:48.605Z,59.24
2017-05-31T00:24:48.604Z,59.05
2017-05-31T00:25:48.601Z,59.34
2017-05-31T00:26:48.599Z,59.34
2017-05-31T00:27:48.597Z,59.72
2017-05-31T00:28:48.596Z,59.92
2017-05-31T00:29:48.290Z,59.72
2017-05-31T00:30:48.592Z,59.92
2017-05-31T00:31:48.589Z,59.63
2017-05-31T00:32:48.592Z,59.92
2017-05-31T00:33:48.587Z,59.53
2017-05-31T00:34:48.585Z,59.53
2017-05-31T00:35:48.584Z,59.63
2017-05-31T00:36:48.584Z,59.53
2017-05-31T00:37:48.581Z,59.53
2017-05-31T00:38:48.582Z,59.63
2017-05-31T00:39:48.578Z,59.34
2017-05-31T00:40:48.273Z,59.34
2017-05-31T00:41:48.271Z,60.01
2017-05-31T00:42:48.573Z,60.01
2017-05-31T00:43:48.570Z,59.15
2017-05-31T00:44:48.569Z,59.82
2017-05-31T00:45:48.566Z,59.92
2017-05-31T00:46:48.565Z,59.92
2017-05-31T00:47:48.563Z,59.63
2017-05-31T00:48:48.560Z,59.53
2017-05-31T00:49:48.558Z,60.01
2017-05-31T00:50:48.557Z,59.92
2017-05-31T00:51:48.556Z,60.01
2017-05-31T00:52:48.554Z,60.01
2017-05-31T00:53:48.552Z,60.01
2017-05-31T00:54:48.550Z,59.63
2017-05-31T00:55:48.549Z,59.92
2017-05-31T00:56:48.547Z,59.82
2017-05-31T00:57:48.548Z,60.01
2017-05-31T00:58:48.550Z,60.01
2017-05-31T00:59:48.544Z,59.82
2017-05-31T01:00:48.540Z,60.01
2017-05-31T01:01:48.539Z,59.82
2017-05-31T01:02:48.539Z,59.92
2017-05-31T01:03:48.534Z,60.01
2017-05-31T01:04:48.536Z,59.92
2017-05-31T01:05:48.537Z,59.34
2017-05-31T01:06:48.529Z,59.72
2017-05-31T01:07:48.529Z,59.92
2017-05-31T01:08:48.525Z,59.72
2017-05-31T01:09:48.524Z,59.53
2017-05-31T01:10:48.523Z,59.82
2017-05-31T01:11:48.520Z,59.92
2017-05-31T01:12:48.520Z,59.82
2017-05-31T01:13:48.517Z,59.92
2017-05-31T01:14:48.516Z,60.11
2017-05-31T01:15:48.514Z,60.11
2017-05-31T01:16:48.513Z,60.11
2017-05-31T01:17:48.510Z,60.01
2017-05-31T01:18:48.511Z,60.11
2017-05-31T01:19:48.511Z,60.01
2017-05-31T01:20:48.508Z,60.01
2017-05-31T01:21:48.506Z,60.01
2017-05-31T01:22:48.504Z,59.92
2017-05-31T01:23:48.501Z,59.92
2017-05-31T01:24:48.498Z,60.01
2017-05-31T01:25:48.497Z,60.01
2017-05-31T01:26:48.499Z,60.3
2017-05-31T01:27:48.796Z,60.11
2017-05-31T01:28:48.491Z,60.11
2017-05-31T01:29:48.490Z,60.11
2017-05-31T01:30:48.184Z,59.92
2017-05-31T01:31:48.183Z,60.3
2017-05-31T01:32:48.485Z,60.69
2017-05-31T01:33:48.482Z,60.3
2017-05-31T01:34:48.181Z,60.59
2017-05-31T01:35:48.479Z,60.39
2017-05-31T01:36:48.478Z,60.39
2017-05-31T01:37:48.476Z,60.3
2017-05-31T01:38:48.474Z,60.3
2017-05-31T01:39:48.473Z,60.39
2017-05-31T01:40:48.470Z,60.59
2017-05-31T01:41:48.468Z,60.37
2017-05-31T01:42:48.414Z,60.08
2017-05-31T01:43:48.465Z,60.46
2017-05-31T01:44:48.464Z,60.37
2017-05-31T01:45:48.462Z,60.75
2017-05-31T01:46:48.460Z,61.04
2017-05-31T01:47:48.457Z,60.94
2017-05-31T01:48:48.456Z,60.63
2017-05-31T01:49:48.454Z,61.2
2017-05-31T01:50:48.452Z,61.2
2017-05-31T01:51:48.449Z,61.3
2017-05-31T01:52:48.146Z,61.4
2017-05-31T01:53:48.445Z,61.58
2017-05-31T01:54:48.445Z,61.65
2017-05-31T01:55:48.445Z,62.04
2017-05-31T01:56:48.440Z,62.04
2017-05-31T01:57:48.436Z,62.61
2017-05-31T01:58:48.435Z,62.23
2017-05-31T01:59:48.433Z,62.81
2017-05-31T02:00:48.129Z,62.99
2017-05-31T02:01:48.428Z,62.99
2017-05-31T02:02:48.427Z,62.9
2017-05-31T02:03:48.424Z,63.25
2017-05-31T02:04:48.420Z,63.45
2017-05-31T02:05:48.420Z,63.54
2017-05-31T02:06:48.417Z,63.83
2017-05-31T02:07:48.415Z,63.73
2017-05-31T02:08:48.412Z,63.35
2017-05-31T02:09:48.410Z,63.45
2017-05-31T02:10:48.407Z,63.92
2017-05-31T02:11:48.407Z,64.31
2017-05-31T02:12:48.402Z,64.59
2017-05-31T02:13:48.400Z,64.56
2017-05-31T02:14:48.399Z,64.37
2017-05-31T02:15:48.396Z,64.37
2017-05-31T02:16:48.089Z,64.37
2017-05-31T02:17:48.390Z,64.18
2017-05-31T02:18:48.390Z,64.66
2017-05-31T02:19:48.384Z,65.14
2017-05-31T02:20:48.381Z,65.52
2017-05-31T02:21:48.080Z,65.23
2017-05-31T02:22:48.376Z,65.52
2017-05-31T02:23:48.373Z,65.14
2017-05-31T02:24:48.372Z,65.14
2017-05-31T02:25:48.370Z,65.43
2017-05-31T02:26:48.365Z,65.81
2017-05-31T02:27:48.058Z,65.62
2017-05-31T02:28:48.360Z,65.33
2017-05-31T02:29:48.359Z,65.33
2017-05-31T02:30:48.353Z,65.43
2017-05-31T02:31:48.351Z,65.72
2017-05-31T02:32:48.349Z,65.33
2017-05-31T02:33:48.345Z,66.29
2017-05-31T02:34:48.039Z,65.62
2017-05-31T02:35:48.339Z,66.19
2017-05-31T02:36:48.034Z,65.97
2017-05-31T02:37:48.334Z,66.74
2017-05-31T02:38:48.342Z,66.55
2017-05-31T02:39:48.330Z,66.64
2017-05-31T02:40:48.328Z,66.64
2017-05-31T02:41:48.323Z,66.55
2017-05-31T02:42:48.321Z,67.02
2017-05-31T02:43:48.315Z,67.41
2017-05-31T02:44:48.315Z,67.5
2017-05-31T02:45:48.310Z,67.5
2017-05-31T02:46:48.306Z,67.02
2017-05-31T02:47:48.303Z,66.55
2017-05-31T02:48:48.300Z,66.45
2017-05-31T02:49:48.296Z,66.26
2017-05-31T02:50:48.295Z,66.55
2017-05-31T02:51:48.292Z,66.64
2017-05-31T02:52:48.291Z,66.74
2017-05-31T02:53:48.284Z,66.93
2017-05-31T02:54:47.978Z,67.02
2017-05-31T02:55:48.279Z,66.83
2017-05-31T02:56:47.974Z,67.22
2017-05-31T02:57:48.275Z,67.22
2017-05-31T02:58:48.272Z,67.32
2017-05-31T02:59:48.269Z,67.41
2017-05-31T03:00:48.268Z,67.89
2017-05-31T03:01:48.263Z,67.6
2017-05-31T03:02:48.259Z,67.69
2017-05-31T03:03:47.952Z,67.69
2017-05-31T03:04:48.253Z,67.12
2017-05-31T03:05:48.250Z,66.93
2017-05-31T03:06:48.246Z,67.22
2017-05-31T03:07:48.242Z,67.22
2017-05-31T03:08:48.240Z,67.12
2017-05-31T03:09:48.238Z,67.02
2017-05-31T03:10:48.233Z,67.12
2017-05-31T03:11:48.230Z,67.32
2017-05-31T03:12:47.924Z,67.79
2017-05-31T03:13:48.224Z,67.79
2017-05-31T03:14:48.220Z,67.6
2017-05-31T03:15:48.217Z,67.12
2017-05-31T03:16:48.216Z,67.5
2017-05-31T03:17:48.213Z,67.69
2017-05-31T03:18:48.209Z,68.08
2017-05-31T03:19:48.206Z,68.18
2017-05-31T03:20:48.201Z,67.5
2017-05-31T03:21:48.201Z,67.6
2017-05-31T03:22:48.195Z,68.08
2017-05-31T03:23:48.193Z,68.18
2017-05-31T03:24:48.190Z,68.18
2017-05-31T03:25:48.188Z,68.08
2017-05-31T03:26:48.185Z,68.37
2017-05-31T03:27:48.186Z,67.99
2017-05-31T03:28:47.876Z,67.89
2017-05-31T03:29:48.174Z,67.89
2017-05-31T03:30:48.172Z,68.18
2017-05-31T03:31:48.171Z,67.79
2017-05-31T03:32:48.165Z,68.21
2017-05-31T03:33:48.161Z,68.12
2017-05-31T03:34:48.159Z,67.44
2017-05-31T03:35:48.157Z,67.73
2017-05-31T03:36:48.154Z,67.25
2017-05-31T03:37:48.150Z,67.83
2017-05-31T03:38:48.147Z,67.44
2017-05-31T03:39:48.143Z,67.44
2017-05-31T03:40:48.146Z,67.16
2017-05-31T03:41:48.138Z,66.96
2017-05-31T03:42:48.136Z,66.77
2017-05-31T03:43:47.828Z,66.86
2017-05-31T03:44:48.130Z,66.39
2017-05-31T03:45:47.826Z,66.49
2017-05-31T03:46:47.822Z,66.58
2017-05-31T03:47:47.817Z,65.91
2017-05-31T03:48:48.118Z,66.19
2017-05-31T03:49:48.115Z,66
2017-05-31T03:50:48.112Z,66.19
2017-05-31T03:51:47.806Z,66.19
2017-05-31T03:52:47.804Z,65.81
2017-05-31T03:53:48.105Z,65.33
2017-05-31T03:54:48.099Z,65.33
2017-05-31T03:55:48.098Z,65.23
2017-05-31T03:56:48.093Z,65.72
2017-05-31T03:57:48.096Z,65.33
2017-05-31T03:58:48.093Z,65.43
2017-05-31T03:59:48.086Z,65.14
2017-05-31T04:00:48.088Z,64.76
2017-05-31T04:01:48.081Z,64.12
2017-05-31T04:02:48.078Z,64.59
2017-05-31T04:03:48.075Z,64.02
2017-05-31T04:04:48.073Z,63.25
2017-05-31T04:05:48.071Z,63.25
2017-05-31T04:06:48.068Z,63.28
2017-05-31T04:07:48.066Z,62.9
2017-05-31T04:08:48.064Z,62.9
2017-05-31T04:09:48.062Z,62.42
2017-05-31T04:10:48.059Z,62.23
2017-05-31T04:11:48.061Z,62.13
2017-05-31T04:12:48.058Z,61.68
2017-05-31T04:13:48.052Z,61.3
2017-05-31T04:14:48.052Z,61.3
2017-05-31T04:15:48.050Z,61.11
2017-05-31T04:16:48.047Z,61.11
2017-05-31T04:17:48.045Z,60.91
2017-05-31T04:18:48.043Z,60.85
2017-05-31T04:19:48.042Z,60.75
2017-05-31T04:20:48.041Z,60.08
2017-05-31T04:21:48.038Z,60.37
2017-05-31T04:22:48.036Z,60.17
2017-05-31T04:23:48.033Z,60.27
2017-05-31T04:24:48.032Z,60.56
2017-05-31T04:25:48.031Z,60.11
2017-05-31T04:26:48.030Z,59.82
2017-05-31T04:27:47.731Z,58.86
2017-05-31T04:28:48.092Z,59.44
2017-05-31T04:29:48.026Z,59.75
2017-05-31T04:30:48.029Z,59.66
2017-05-31T04:31:48.022Z,59.66
2017-05-31T04:32:48.022Z,59.27
2017-05-31T04:33:48.022Z,59.08
2017-05-31T04:34:48.021Z,59.08
2017-05-31T04:35:48.020Z,59.3
2017-05-31T04:36:48.017Z,58.98
2017-05-31T04:37:48.018Z,58.92
2017-05-31T04:38:48.015Z,58.82
2017-05-31T04:39:48.015Z,58.53
2017-05-31T04:40:48.015Z,58.82
2017-05-31T04:41:48.013Z,58.53
2017-05-31T04:42:48.014Z,58.63
2017-05-31T04:43:48.012Z,58.44
2017-05-31T04:44:48.010Z,58.53
2017-05-31T04:45:48.009Z,58.53
2017-05-31T04:46:48.009Z,58.34
2017-05-31T04:47:48.008Z,58.53
2017-05-31T04:48:48.007Z,58.53
2017-05-31T04:49:48.005Z,58.53
2017-05-31T04:50:48.005Z,58.44
2017-05-31T04:51:48.007Z,58.53
2017-05-31T04:52:47.703Z,58.44
2017-05-31T04:53:48.003Z,58.44
2017-05-31T04:54:48.005Z,58.72
2017-05-31T04:55:48.003Z,58.63
2017-05-31T04:56:48.001Z,58.82
2017-05-31T04:57:48.000Z,58.05
2017-05-31T04:58:48.001Z,58.05
2017-05-31T04:59:47.999Z,58.56
2017-05-31T05:00:47.998Z,57.89
2017-05-31T05:01:48.002Z,57.98
2017-05-31T05:02:47.999Z,58.24
2017-05-31T05:03:47.997Z,57.95
2017-05-31T05:04:47.997Z,57.95
2017-05-31T05:05:47.995Z,57.95
2017-05-31T05:06:47.995Z,57.67
2017-05-31T05:07:47.994Z,58.44
2017-05-31T05:08:47.994Z,58.15
2017-05-31T05:09:47.994Z,58.15
2017-05-31T05:10:47.690Z,57.67
2017-05-31T05:11:47.992Z,58.05
2017-05-31T05:12:47.992Z,58.05
2017-05-31T05:13:47.991Z,57.95
2017-05-31T05:14:47.992Z,57.86
2017-05-31T05:15:47.991Z,58.15
2017-05-31T05:16:47.990Z,57.95
2017-05-31T05:17:47.989Z,58.24
2017-05-31T05:18:47.987Z,58.47
2017-05-31T05:19:47.988Z,57.98
2017-05-31T05:20:47.985Z,58.47
2017-05-31T05:21:47.985Z,57.98
2017-05-31T05:22:47.983Z,57.79
2017-05-31T05:23:47.681Z,58.08
2017-05-31T05:24:47.983Z,57.82
2017-05-31T05:25:47.981Z,57.43
2017-05-31T05:26:47.985Z,57.53
2017-05-31T05:27:47.982Z,58.01
2017-05-31T05:28:47.983Z,57.53
2017-05-31T05:29:47.980Z,57.62
2017-05-31T05:30:47.983Z,57.53
2017-05-31T05:31:47.980Z,57.53
2017-05-31T05:32:47.982Z,57.53
2017-05-31T05:33:47.980Z,57.62
2017-05-31T05:34:47.980Z,57.82
2017-05-31T05:35:47.981Z,57.05
2017-05-31T05:36:47.980Z,57.05
2017-05-31T05:37:47.981Z,57.14
2017-05-31T05:38:47.980Z,57.24
2017-05-31T05:39:47.982Z,57.43
2017-05-31T05:40:47.978Z,57.14
2017-05-31T05:41:47.981Z,57.43
2017-05-31T05:42:47.978Z,57.53
2017-05-31T05:43:47.979Z,57.24
2017-05-31T05:44:47.978Z,57.05
2017-05-31T05:45:47.978Z,57.17
2017-05-31T05:46:47.981Z,57.14
2017-05-31T05:47:47.977Z,57.05
2017-05-31T05:48:47.982Z,57.14
2017-05-31T05:49:47.978Z,57.24
2017-05-31T05:50:47.984Z,56.85
2017-05-31T05:51:47.977Z,57.27
2017-05-31T05:52:47.980Z,56.79
2017-05-31T05:53:47.979Z,56.88
2017-05-31T05:54:47.979Z,57.39
2017-05-31T05:55:47.978Z,56.52
2017-05-31T05:56:47.980Z,57.1
2017-05-31T05:57:47.980Z,56.91
2017-05-31T05:58:47.981Z,56.26
2017-05-31T05:59:47.984Z,56.24
2017-05-31T06:00:47.982Z,56.24
2017-05-31T06:01:47.994Z,56.07
2017-05-31T06:02:47.983Z,56.04
2017-05-31T06:03:47.987Z,56.04
2017-05-31T06:04:47.683Z,55.94
2017-05-31T06:05:47.989Z,56.24
2017-05-31T06:06:47.990Z,56.04
2017-05-31T06:07:47.992Z,56.16
2017-05-31T06:08:47.995Z,56.16
2017-05-31T06:09:47.996Z,56
2017-05-31T06:10:47.998Z,56.2
2017-05-31T06:11:48.002Z,55.07
2017-05-31T06:12:48.005Z,54.9
2017-05-31T06:13:48.006Z,54.44
2017-05-31T06:14:48.010Z,53.89
2017-05-31T06:15:48.014Z,53.43
2017-05-31T06:16:48.021Z,53.26
2017-05-31T06:17:48.024Z,52.71
2017-05-31T06:18:48.030Z,52.06
2017-05-31T06:19:48.039Z,51.67
2017-05-31T06:20:48.044Z,50.34
2017-05-31T06:21:48.050Z,49.77
2017-05-31T06:22:48.057Z,48.73
2017-05-31T06:23:48.066Z,48.95
2017-05-31T06:24:48.075Z,47.49
2017-05-31T06:25:48.081Z,47.23
2017-05-31T06:26:48.090Z,47.54
2017-05-31T06:27:48.097Z,46.78
2017-05-31T06:28:48.107Z,46.23
2017-05-31T06:29:48.118Z,45.57
2017-05-31T06:30:47.824Z,44.71
2017-05-31T06:31:48.139Z,42.1
2017-05-31T06:32:48.147Z,40.66
2017-05-31T06:33:48.155Z,40.39
2017-05-31T06:34:48.171Z,40.68
2017-05-31T06:35:48.176Z,40.41
2017-05-31T06:36:48.187Z,40.11
2017-05-31T06:37:48.200Z,37.79
2017-05-31T06:38:48.209Z,38.57
2017-05-31T06:39:48.220Z,38.57
2017-05-31T06:40:48.233Z,38.28
2017-05-31T06:41:48.243Z,37.71
2017-05-31T06:42:48.254Z,36.73
2017-05-31T06:43:48.264Z,36.26
2017-05-31T06:44:48.274Z,35.99
2017-05-31T06:45:48.287Z,35.5
2017-05-31T06:46:47.996Z,34.83
2017-05-31T06:47:48.309Z,34.74
2017-05-31T06:48:48.320Z,33.65
2017-05-31T06:49:48.333Z,33.65
2017-05-31T06:50:48.342Z,33.75
2017-05-31T06:51:48.354Z,33.17
2017-05-31T06:52:48.366Z,33.15
2017-05-31T06:53:48.375Z,33.72
2017-05-31T06:54:48.388Z,33.82
2017-05-31T06:55:48.399Z,33.92
2017-05-31T06:56:48.411Z,33.62
2017-05-31T06:57:48.421Z,34.21
2017-05-31T06:58:48.130Z,34.41
2017-05-31T06:59:48.441Z,34.68
2017-05-31T07:00:48.451Z,34.68
2017-05-31T07:01:48.463Z,34.77
2017-05-31T07:02:48.472Z,34.86
2017-05-31T07:03:48.483Z,35.06
2017-05-31T07:04:48.493Z,36.21
2017-05-31T07:05:48.502Z,36.49
2017-05-31T07:06:48.513Z,37.15
2017-05-31T07:07:48.523Z,36.96
2017-05-31T07:08:48.533Z,37.52
2017-05-31T07:09:48.543Z,37.62
2017-05-31T07:10:48.552Z,37.04
2017-05-31T07:11:48.563Z,37.45
2017-05-31T07:12:48.579Z,37.35
2017-05-31T07:13:48.280Z,36.68
2017-05-31T07:14:48.594Z,36.66
2017-05-31T07:15:48.603Z,36.29
2017-05-31T07:16:48.613Z,36.19
2017-05-31T07:17:48.624Z,35.61
2017-05-31T07:18:48.636Z,35.41
2017-05-31T07:19:48.645Z,36.18
2017-05-31T07:20:48.658Z,36.18
2017-05-31T07:21:48.666Z,35.88
2017-05-31T07:22:48.676Z,36.08
2017-05-31T07:23:48.382Z,36.08
2017-05-31T07:24:48.701Z,35.78
2017-05-31T07:25:48.707Z,36.08
2017-05-31T07:26:48.716Z,35.9
2017-05-31T07:27:48.728Z,35.61
2017-05-31T07:28:48.739Z,34.92
2017-05-31T07:29:48.754Z,35.51
2017-05-31T07:30:48.761Z,35.8
2017-05-31T07:31:48.771Z,36
2017-05-31T07:32:48.783Z,35.71
2017-05-31T07:33:48.796Z,35.12
2017-05-31T07:34:48.802Z,34.92
2017-05-31T07:35:48.816Z,35.14
2017-05-31T07:36:48.829Z,35.33
2017-05-31T07:37:48.838Z,34.75
2017-05-31T07:38:48.850Z,34.57
2017-05-31T07:39:48.862Z,34.77
2017-05-31T07:40:48.874Z,33.59
2017-05-31T07:41:48.885Z,33.3
2017-05-31T07:42:48.896Z,32.53
2017-05-31T07:43:48.908Z,32.53
2017-05-31T07:44:48.920Z,33.02
2017-05-31T07:45:48.932Z,32.91
2017-05-31T07:46:48.943Z,33.59
2017-05-31T07:47:48.955Z,33.11
2017-05-31T07:48:48.966Z,33.67
2017-05-31T07:49:48.977Z,33.85
2017-05-31T07:50:48.686Z,34.53
2017-05-31T07:51:48.696Z,34.53
2017-05-31T07:52:49.009Z,33.75
2017-05-31T07:53:49.020Z,34.53
2017-05-31T07:54:49.031Z,35.1
2017-05-31T07:55:49.040Z,35.18
2017-05-31T07:56:49.051Z,36.14
2017-05-31T07:57:49.059Z,36.9
2017-05-31T07:58:49.070Z,37.46
2017-05-31T07:59:48.777Z,38.15
2017-05-31T08:00:49.088Z,38.05
2017-05-31T08:01:49.099Z,39
2017-05-31T08:02:49.105Z,39.78
2017-05-31T08:03:49.116Z,40.44
2017-05-31T08:04:49.122Z,41.2
2017-05-31T08:05:49.134Z,41.88
2017-05-31T08:06:48.835Z,42.15
2017-05-31T08:07:49.145Z,42.52
2017-05-31T08:08:49.153Z,43.59
2017-05-31T08:09:49.164Z,44.05
2017-05-31T08:10:49.171Z,44.44
2017-05-31T08:11:49.175Z,45
2017-05-31T08:12:49.178Z,45.48
2017-05-31T08:13:49.182Z,45.85
2017-05-31T08:14:49.193Z,46.14
2017-05-31T08:15:49.197Z,46.31
2017-05-31T08:16:49.200Z,46.7
2017-05-31T08:17:48.903Z,47.26
2017-05-31T08:18:49.210Z,47.45
2017-05-31T08:19:49.218Z,47.45
2017-05-31T08:20:48.918Z,48.22
2017-05-31T08:21:49.226Z,48.81
2017-05-31T08:22:49.232Z,48.03
2017-05-31T08:23:49.239Z,48.61
2017-05-31T08:24:49.242Z,48.54
2017-05-31T08:25:49.250Z,47.38
2017-05-31T08:26:49.255Z,46.43
2017-05-31T08:27:49.262Z,46.14
2017-05-31T08:28:49.270Z,45.37
2017-05-31T08:29:49.277Z,44.23
2017-05-31T08:30:49.291Z,43.74
2017-05-31T08:31:48.990Z,44.23
2017-05-31T08:32:49.301Z,44.71
2017-05-31T08:33:49.308Z,44.13
2017-05-31T08:34:49.315Z,44.13
2017-05-31T08:35:49.321Z,44.32
2017-05-31T08:36:49.331Z,44.13
2017-05-31T08:37:49.336Z,44.03
2017-05-31T08:38:49.040Z,44.49
2017-05-31T08:39:49.346Z,45.17
2017-05-31T08:40:49.353Z,46.02
2017-05-31T08:41:49.360Z,46.7
2017-05-31T08:42:49.367Z,47.09
2017-05-31T08:43:49.375Z,47.28
2017-05-31T08:44:49.381Z,47.77
2017-05-31T08:45:49.387Z,47.2
2017-05-31T08:46:49.392Z,46.53
2017-05-31T08:47:49.400Z,45.87
2017-05-31T08:48:49.408Z,45.48
2017-05-31T08:49:49.422Z,45.51
2017-05-31T08:50:49.425Z,45.41
2017-05-31T08:51:49.432Z,43.4
2017-05-31T08:52:49.441Z,43.59
2017-05-31T08:53:49.451Z,42.71
2017-05-31T08:54:49.457Z,42.54
2017-05-31T08:55:49.466Z,41.77
2017-05-31T08:56:49.476Z,41.47
2017-05-31T08:57:49.483Z,41.94
2017-05-31T08:58:49.492Z,41.74
2017-05-31T08:59:49.500Z,42.89
2017-05-31T09:00:49.509Z,42.99
2017-05-31T09:01:49.515Z,43.76
2017-05-31T09:02:49.521Z,44.32
2017-05-31T09:03:49.528Z,44.13
2017-05-31T09:04:49.239Z,44.61
2017-05-31T09:05:49.542Z,44.81
2017-05-31T09:06:49.608Z,45.78
2017-05-31T09:07:49.590Z,45.58
2017-05-31T09:08:49.561Z,44.61
2017-05-31T09:09:49.567Z,44.68
2017-05-31T09:10:49.574Z,44.81
2017-05-31T09:11:49.578Z,44.13
2017-05-31T09:12:49.582Z,43.06
2017-05-31T09:13:49.591Z,42.29
2017-05-31T09:14:49.598Z,40.64
2017-05-31T09:15:49.621Z,41.89
2017-05-31T09:16:49.606Z,41.12
2017-05-31T09:17:49.613Z,41.99
2017-05-31T09:18:49.620Z,41.7
2017-05-31T09:19:49.623Z,40.25
2017-05-31T09:20:49.326Z,40.83
2017-05-31T09:21:49.641Z,41.8
2017-05-31T09:22:49.639Z,41.97
2017-05-31T09:23:49.643Z,41.3
2017-05-31T09:24:49.346Z,42.07
2017-05-31T09:25:49.856Z,41.88
2017-05-31T09:26:49.658Z,41.88
2017-05-31T09:27:49.662Z,42.46
2017-05-31T09:28:49.669Z,42.75
2017-05-31T09:29:49.672Z,43.52
2017-05-31T09:30:49.674Z,43.82
2017-05-31T09:31:49.679Z,43.33
2017-05-31T09:32:49.687Z,42.77
2017-05-31T09:33:49.689Z,42.86
2017-05-31T09:34:49.692Z,42.57
2017-05-31T09:35:49.698Z,40.92
2017-05-31T09:36:49.705Z,41.31
2017-05-31T09:37:49.706Z,41.02
2017-05-31T09:38:49.710Z,41.02
2017-05-31T09:39:49.716Z,41.51
2017-05-31T09:40:49.720Z,41.89
2017-05-31T09:41:49.422Z,42.09
2017-05-31T09:42:49.731Z,41.31
2017-05-31T09:43:49.733Z,40.54
2017-05-31T09:44:49.434Z,40.25
2017-05-31T09:45:49.742Z,40.33
2017-05-31T09:46:49.746Z,40.33
2017-05-31T09:47:49.751Z,40.03
2017-05-31T09:48:49.755Z,40.03
2017-05-31T09:49:49.759Z,40.33
2017-05-31T09:50:49.762Z,40.33
2017-05-31T09:51:49.770Z,40.54
2017-05-31T09:52:49.771Z,39.76
2017-05-31T09:53:49.777Z,39.88
2017-05-31T09:54:49.783Z,39.18
2017-05-31T09:55:49.484Z,39.08
2017-05-31T09:56:49.791Z,39.67
2017-05-31T09:57:49.492Z,39.67
2017-05-31T09:58:49.804Z,39.67
2017-05-31T09:59:49.803Z,39.28
2017-05-31T10:00:49.808Z,40.05
2017-05-31T10:01:49.812Z,40.33
2017-05-31T10:02:49.816Z,39.67
2017-05-31T10:03:49.821Z,40.13
2017-05-31T10:04:49.826Z,40.23
2017-05-31T10:05:49.535Z,40.34
2017-05-31T10:06:49.834Z,40.25
2017-05-31T10:07:49.842Z,39.29
2017-05-31T10:08:49.844Z,38.23
2017-05-31T10:09:49.847Z,37.86
2017-05-31T10:10:49.854Z,37.57
2017-05-31T10:11:49.860Z,36.69
2017-05-31T10:12:49.862Z,36.6
2017-05-31T10:13:49.866Z,36.69
2017-05-31T10:14:49.875Z,36.02
2017-05-31T10:15:49.877Z,37.18
2017-05-31T10:16:49.883Z,36.89
2017-05-31T10:17:49.889Z,37.28
2017-05-31T10:18:49.891Z,37.66
2017-05-31T10:19:49.896Z,37.84
2017-05-31T10:20:49.902Z,37.84
2017-05-31T10:21:49.905Z,38.89
2017-05-31T10:22:49.911Z,39.18
2017-05-31T10:23:49.919Z,38.96
2017-05-31T10:24:49.928Z,39.74
2017-05-31T10:25:49.934Z,39.16
2017-05-31T10:26:49.930Z,39.55
2017-05-31T10:27:49.649Z,39.55
2017-05-31T10:28:49.939Z,39.94
2017-05-31T10:29:49.943Z,40.01
2017-05-31T10:30:49.957Z,40.21
2017-05-31T10:31:49.952Z,40.59
2017-05-31T10:32:49.957Z,41.56
2017-05-31T10:33:49.961Z,41.93
2017-05-31T10:34:49.964Z,42.03
2017-05-31T10:35:49.667Z,42.41
2017-05-31T10:36:49.974Z,41.45
2017-05-31T10:37:49.977Z,41.55
2017-05-31T10:38:49.980Z,41.55
2017-05-31T10:39:49.983Z,41.45
2017-05-31T10:40:50.006Z,41.06
2017-05-31T10:41:49.990Z,41.25
2017-05-31T10:42:49.711Z,41.25
2017-05-31T10:43:49.996Z,40.31
2017-05-31T10:44:50.000Z,39.24
2017-05-31T10:45:50.005Z,39.92
2017-05-31T10:46:50.009Z,38.95
2017-05-31T10:47:50.010Z,38.76
2017-05-31T10:48:49.711Z,38.95
2017-05-31T10:49:50.019Z,39.34
2017-05-31T10:50:50.022Z,38.85
2017-05-31T10:51:50.026Z,38.96
2017-05-31T10:52:50.030Z,39.36
2017-05-31T10:53:50.034Z,38.78
2017-05-31T10:54:50.037Z,38.09
2017-05-31T10:55:50.041Z,38
2017-05-31T10:56:50.049Z,37.24
2017-05-31T10:57:50.049Z,37.34
2017-05-31T10:58:49.750Z,36.76
2017-05-31T10:59:50.057Z,36.66
2017-05-31T11:00:50.064Z,36.35
2017-05-31T11:01:50.066Z,36.18
2017-05-31T11:02:50.071Z,37.13
2017-05-31T11:03:50.074Z,37.71
2017-05-31T11:04:50.080Z,37.61
2017-05-31T11:05:50.084Z,37.81
2017-05-31T11:06:50.088Z,38
2017-05-31T11:07:50.091Z,37.88
2017-05-31T11:08:49.793Z,38.07
2017-05-31T11:09:50.098Z,38.56
2017-05-31T11:10:50.104Z,38.46
2017-05-31T11:11:49.804Z,39.12
2017-05-31T11:12:50.109Z,39.32
2017-05-31T11:13:50.113Z,39.12
2017-05-31T11:14:50.118Z,39.32
2017-05-31T11:15:50.125Z,39.41
2017-05-31T11:16:50.126Z,40.09
2017-05-31T11:17:50.130Z,39.8
2017-05-31T11:18:50.134Z,39.22
2017-05-31T11:19:50.135Z,39.12
2017-05-31T11:20:49.834Z,38.06
2017-05-31T11:21:50.141Z,37.96
2017-05-31T11:22:50.145Z,37.57
2017-05-31T11:23:50.148Z,37.57
2017-05-31T11:24:50.153Z,37.69
2017-05-31T11:25:50.157Z,37.69
2017-05-31T11:26:50.162Z,37.98
2017-05-31T11:27:50.165Z,37.98
2017-05-31T11:28:50.166Z,37.98
2017-05-31T11:29:49.867Z,37.98
2017-05-31T11:30:50.173Z,37.9
2017-05-31T11:31:49.871Z,36.83
2017-05-31T11:32:50.177Z,36.83
2017-05-31T11:33:50.183Z,37.32
2017-05-31T11:34:50.185Z,34.51
2017-05-31T11:35:49.888Z,33.83
2017-05-31T11:36:50.196Z,34.41
2017-05-31T11:37:49.897Z,34.7
2017-05-31T11:38:50.201Z,33.64
2017-05-31T11:39:50.205Z,33.26
2017-05-31T11:40:49.907Z,33.36
2017-05-31T11:41:50.214Z,33.84
2017-05-31T11:42:50.215Z,33.46
2017-05-31T11:43:50.217Z,34.04
2017-05-31T11:44:49.919Z,33.26
2017-05-31T11:45:50.225Z,33.84
2017-05-31T11:46:50.228Z,34.23
2017-05-31T11:47:50.233Z,33.36
2017-05-31T11:48:50.237Z,33.36
2017-05-31T11:49:50.241Z,32.87
2017-05-31T11:50:50.243Z,32.78
2017-05-31T11:51:49.946Z,32.97
2017-05-31T11:52:50.251Z,32.68
2017-05-31T11:53:50.256Z,32
2017-05-31T11:54:50.261Z,32.1
2017-05-31T11:55:50.320Z,32.68
2017-05-31T11:56:50.267Z,32.87
2017-05-31T11:57:50.270Z,32.68
2017-05-31T11:58:50.276Z,32.39
2017-05-31T11:59:50.279Z,30.94
2017-05-31T12:00:50.280Z,31.31
2017-05-31T12:01:50.287Z,32.47
2017-05-31T12:02:50.288Z,31.89
2017-05-31T12:03:50.295Z,32.18
2017-05-31T12:04:50.298Z,32.18
2017-05-31T12:05:50.304Z,31.89
2017-05-31T12:06:50.303Z,32.67
2017-05-31T12:07:50.305Z,32.57
2017-05-31T12:08:50.313Z,32.86
2017-05-31T12:09:50.314Z,33.15
2017-05-31T12:10:50.317Z,33.15
2017-05-31T12:11:50.319Z,34.04
2017-05-31T12:12:50.325Z,33.36
2017-05-31T12:13:50.327Z,34.53
2017-05-31T12:14:50.331Z,33.17
2017-05-31T12:15:50.337Z,34.53
2017-05-31T12:16:50.339Z,35.11
2017-05-31T12:17:50.343Z,35.01
2017-05-31T12:18:50.347Z,33.17
2017-05-31T12:19:50.349Z,33.25
2017-05-31T12:20:50.354Z,34.31
2017-05-31T12:21:50.358Z,34.7
2017-05-31T12:22:50.056Z,34.31
2017-05-31T12:23:50.365Z,34.89
2017-05-31T12:24:50.369Z,35.56
2017-05-31T12:25:50.372Z,34.78
2017-05-31T12:26:50.377Z,34.88
2017-05-31T12:27:50.380Z,33.91
2017-05-31T12:28:50.384Z,33.04
2017-05-31T12:29:50.386Z,33.14
2017-05-31T12:30:50.391Z,33.52
2017-05-31T12:31:50.394Z,34.01
2017-05-31T12:32:50.396Z,33.41
2017-05-31T12:33:50.399Z,33.91
2017-05-31T12:34:50.097Z,33.22
2017-05-31T12:35:50.407Z,32.92
2017-05-31T12:36:50.410Z,32.92
2017-05-31T12:37:50.411Z,32.44
2017-05-31T12:38:50.413Z,32.56
2017-05-31T12:39:50.416Z,32.65
2017-05-31T12:40:50.421Z,32.56
2017-05-31T12:41:50.423Z,32.36
2017-05-31T12:42:50.434Z,32.17
2017-05-31T12:43:50.430Z,31.78
2017-05-31T12:44:50.435Z,32.37
2017-05-31T12:45:50.436Z,31.5
2017-05-31T12:46:50.440Z,30.54
2017-05-31T12:47:50.802Z,30.92
2017-05-31T12:48:50.144Z,31.02
2017-05-31T12:49:50.451Z,31.02
2017-05-31T12:50:50.452Z,29.47
2017-05-31T12:51:50.454Z,29.85
2017-05-31T12:52:50.473Z,29.85
2017-05-31T12:53:50.464Z,30.05
2017-05-31T12:54:50.466Z,29.76